sensor_id;sensor_type;location;lat;lon;timestamp;temperature;humidity
52125;DHT22;38119;52.710;6.398;2022-12-13T00:02:11;-2.80;99.90
52125;DHT22;38119;52.710;6.398;2022-12-13T00:04:36;-2.80;99.90
52125;DHT22;38119;52.710;6.398;2022-12-13T00:07:02;-2.80;99.90
52125;DHT22;38119;52.710;6.398;2022-12-13T00:09:28;-2.80;99.90
52125;DHT22;38119;52.710;6.398;2022-12-13T00:11:53;-2.90;99.90
52125;DHT22;38119;52.710;6.398;2022-12-13T00:14:19;-2.80;99.90
52125;DHT22;38119;52.710;6.398;2022-12-13T00:19:40;-2.90;99.90
52125;DHT22;38119;52.710;6.398;2022-12-13T00:22:05;-2.90;99.90
52125;DHT22;38119;52.710;6.398;2022-12-13T00:24:31;-3.00;99.90
52125;DHT22;38119;52.710;6.398;2022-12-13T00:26:56;-2.90;99.90
52125;DHT22;38119;52.710;6.398;2022-12-13T00:29:22;-3.00;99.90
52125;DHT22;38119;52.710;6.398;2022-12-13T00:31:48;-3.00;99.90
52125;DHT22;38119;52.710;6.398;2022-12-13T00:34:13;-3.00;99.90
52125;DHT22;38119;52.710;6.398;2022-12-13T00:36:39;-3.00;99.90
52125;DHT22;38119;52.710;6.398;2022-12-13T00:39:05;-3.00;99.90
52125;DHT22;38119;52.710;6.398;2022-12-13T00:41:32;-3.00;99.90
52125;DHT22;38119;52.710;6.398;2022-12-13T00:46:37;-3.00;99.90
52125;DHT22;38119;52.710;6.398;2022-12-13T00:49:03;-3.10;99.90
52125;DHT22;38119;52.710;6.398;2022-12-13T00:51:30;-3.10;99.90
52125;DHT22;38119;52.710;6.398;2022-12-13T00:53:56;-3.10;99.90
52125;DHT22;38119;52.710;6.398;2022-12-13T00:56:24;-3.10;99.90
52125;DHT22;38119;52.710;6.398;2022-12-13T00:58:51;-3.10;99.90
52125;DHT22;38119;52.710;6.398;2022-12-13T01:01:19;-3.20;99.90
52125;DHT22;38119;52.710;6.398;2022-12-13T01:03:45;-3.20;99.90
52125;DHT22;38119;52.710;6.398;2022-12-13T01:06:20;-3.20;99.90
52125;DHT22;38119;52.710;6.398;2022-12-13T01:08:46;-3.20;99.90
52125;DHT22;38119;52.710;6.398;2022-12-13T01:13:49;-3.20;99.90
52125;DHT22;38119;52.710;6.398;2022-12-13T01:16:14;-3.20;99.90
52125;DHT22;38119;52.710;6.398;2022-12-13T01:18:41;-3.20;99.90
52125;DHT22;38119;52.710;6.398;2022-12-13T01:21:14;-3.30;99.90
52125;DHT22;38119;52.710;6.398;2022-12-13T01:23:41;-3.30;99.90
52125;DHT22;38119;52.710;6.398;2022-12-13T01:26:10;-3.40;99.90
52125;DHT22;38119;52.710;6.398;2022-12-13T01:28:36;-3.40;99.90
52125;DHT22;38119;52.710;6.398;2022-12-13T01:31:05;-3.40;99.90
52125;DHT22;38119;52.710;6.398;2022-12-13T01:33:32;-3.30;99.90
52125;DHT22;38119;52.710;6.398;2022-12-13T01:36:03;-3.40;99.90
52125;DHT22;38119;52.710;6.398;2022-12-13T01:38:41;-3.40;99.90
52125;DHT22;38119;52.710;6.398;2022-12-13T01:41:07;-3.40;99.90
52125;DHT22;38119;52.710;6.398;2022-12-13T01:46:01;-3.40;99.90
52125;DHT22;38119;52.710;6.398;2022-12-13T01:48:29;-3.40;99.90
52125;DHT22;38119;52.710;6.398;2022-12-13T01:50:58;-3.40;99.90
52125;DHT22;38119;52.710;6.398;2022-12-13T01:53:29;-3.40;99.90
52125;DHT22;38119;52.710;6.398;2022-12-13T01:56:02;-3.40;99.90
52125;DHT22;38119;52.710;6.398;2022-12-13T01:58:29;-3.40;99.90
52125;DHT22;38119;52.710;6.398;2022-12-13T02:00:57;-3.40;99.90
52125;DHT22;38119;52.710;6.398;2022-12-13T02:06:05;-3.40;99.90
52125;DHT22;38119;52.710;6.398;2022-12-13T02:08:33;-3.40;99.90
52125;DHT22;38119;52.710;6.398;2022-12-13T02:10:59;-3.40;99.90
52125;DHT22;38119;52.710;6.398;2022-12-13T02:13:25;-3.40;99.90
52125;DHT22;38119;52.710;6.398;2022-12-13T02:19:03;-3.40;99.90
52125;DHT22;38119;52.710;6.398;2022-12-13T02:38:48;-3.50;99.90
52125;DHT22;38119;52.710;6.398;2022-12-13T02:41:32;-3.50;99.90
52125;DHT22;38119;52.710;6.398;2022-12-13T02:44:17;-3.50;99.90
52125;DHT22;38119;52.710;6.398;2022-12-13T02:46:57;-3.50;99.90
52125;DHT22;38119;52.710;6.398;2022-12-13T02:49:27;-3.50;99.90
52125;DHT22;38119;52.710;6.398;2022-12-13T02:51:55;-3.40;99.90
52125;DHT22;38119;52.710;6.398;2022-12-13T02:54:33;-3.40;99.90
52125;DHT22;38119;52.710;6.398;2022-12-13T02:56:59;-3.40;99.90
52125;DHT22;38119;52.710;6.398;2022-12-13T02:59:32;-3.40;99.90
52125;DHT22;38119;52.710;6.398;2022-12-13T03:02:12;-3.40;99.90
52125;DHT22;38119;52.710;6.398;2022-12-13T03:05:12;-3.40;99.90
52125;DHT22;38119;52.710;6.398;2022-12-13T03:08:34;-3.40;99.90
52125;DHT22;38119;52.710;6.398;2022-12-13T03:11:16;-3.40;99.90
52125;DHT22;38119;52.710;6.398;2022-12-13T03:16:13;-3.40;99.90
52125;DHT22;38119;52.710;6.398;2022-12-13T03:21:17;-3.40;99.90
52125;DHT22;38119;52.710;6.398;2022-12-13T03:23:42;-3.50;99.90
52125;DHT22;38119;52.710;6.398;2022-12-13T03:26:16;-3.50;99.90
52125;DHT22;38119;52.710;6.398;2022-12-13T03:28:43;-3.50;99.90
52125;DHT22;38119;52.710;6.398;2022-12-13T03:31:09;-3.50;99.90
52125;DHT22;38119;52.710;6.398;2022-12-13T03:33:34;-3.50;99.90
52125;DHT22;38119;52.710;6.398;2022-12-13T03:36:01;-3.50;99.90
52125;DHT22;38119;52.710;6.398;2022-12-13T03:38:27;-3.50;99.90
52125;DHT22;38119;52.710;6.398;2022-12-13T03:40:59;-3.50;99.90
52125;DHT22;38119;52.710;6.398;2022-12-13T03:43:26;-3.50;99.90
52125;DHT22;38119;52.710;6.398;2022-12-13T03:48:29;-3.50;99.90
52125;DHT22;38119;52.710;6.398;2022-12-13T03:50:55;-3.60;99.90
52125;DHT22;38119;52.710;6.398;2022-12-13T03:53:22;-3.60;99.90
52125;DHT22;38119;52.710;6.398;2022-12-13T03:55:48;-3.60;99.90
52125;DHT22;38119;52.710;6.398;2022-12-13T03:58:13;-3.80;99.90
52125;DHT22;38119;52.710;6.398;2022-12-13T04:00:39;-3.60;99.90
52125;DHT22;38119;52.710;6.398;2022-12-13T04:03:05;-3.70;99.90
52125;DHT22;38119;52.710;6.398;2022-12-13T04:05:30;-3.70;99.90
52125;DHT22;38119;52.710;6.398;2022-12-13T04:07:56;-3.70;99.90
52125;DHT22;38119;52.710;6.398;2022-12-13T04:10:22;-3.80;99.90
52125;DHT22;38119;52.710;6.398;2022-12-13T04:15:26;-3.80;99.90
52125;DHT22;38119;52.710;6.398;2022-12-13T04:17:51;-3.80;99.90
52125;DHT22;38119;52.710;6.398;2022-12-13T04:20:17;-3.80;99.90
52125;DHT22;38119;52.710;6.398;2022-12-13T04:22:43;-3.80;99.90
52125;DHT22;38119;52.710;6.398;2022-12-13T04:25:08;-3.90;99.90
52125;DHT22;38119;52.710;6.398;2022-12-13T04:27:34;-3.90;99.90
52125;DHT22;38119;52.710;6.398;2022-12-13T04:30:03;-3.90;99.90
52125;DHT22;38119;52.710;6.398;2022-12-13T04:32:29;-3.90;99.90
52125;DHT22;38119;52.710;6.398;2022-12-13T04:34:55;-4.00;99.90
52125;DHT22;38119;52.710;6.398;2022-12-13T04:37:20;-4.00;99.90
52125;DHT22;38119;52.710;6.398;2022-12-13T04:42:22;-4.00;99.90
52125;DHT22;38119;52.710;6.398;2022-12-13T04:44:48;-4.00;99.90
52125;DHT22;38119;52.710;6.398;2022-12-13T04:47:15;-4.00;99.90
52125;DHT22;38119;52.710;6.398;2022-12-13T04:49:40;-4.00;99.90
52125;DHT22;38119;52.710;6.398;2022-12-13T04:52:06;-4.00;99.90
52125;DHT22;38119;52.710;6.398;2022-12-13T04:54:32;-4.00;99.90
52125;DHT22;38119;52.710;6.398;2022-12-13T04:56:58;-4.00;99.90
52125;DHT22;38119;52.710;6.398;2022-12-13T04:59:23;-4.00;99.90
52125;DHT22;38119;52.710;6.398;2022-12-13T05:01:49;-4.00;99.90
52125;DHT22;38119;52.710;6.398;2022-12-13T05:04:15;-4.10;99.90
52125;DHT22;38119;52.710;6.398;2022-12-13T05:09:38;-4.10;99.90
52125;DHT22;38119;52.710;6.398;2022-12-13T05:12:04;-4.10;99.90
52125;DHT22;38119;52.710;6.398;2022-12-13T05:14:30;-4.10;99.90
52125;DHT22;38119;52.710;6.398;2022-12-13T05:16:56;-3.20;99.90
52125;DHT22;38119;52.710;6.398;2022-12-13T05:19:22;-4.10;99.90
52125;DHT22;38119;52.710;6.398;2022-12-13T05:21:48;-4.10;99.90
52125;DHT22;38119;52.710;6.398;2022-12-13T05:24:13;-4.10;99.90
52125;DHT22;38119;52.710;6.398;2022-12-13T05:26:39;-4.10;99.90
52125;DHT22;38119;52.710;6.398;2022-12-13T05:29:05;-4.10;99.90
52125;DHT22;38119;52.710;6.398;2022-12-13T05:34:07;-4.20;99.90
52125;DHT22;38119;52.710;6.398;2022-12-13T05:36:33;-4.10;99.90
52125;DHT22;38119;52.710;6.398;2022-12-13T05:38:59;-4.10;99.90
52125;DHT22;38119;52.710;6.398;2022-12-13T05:41:27;-4.10;99.90
52125;DHT22;38119;52.710;6.398;2022-12-13T05:43:53;-4.10;99.90
52125;DHT22;38119;52.710;6.398;2022-12-13T05:46:19;-4.10;99.90
52125;DHT22;38119;52.710;6.398;2022-12-13T05:48:45;-4.10;99.90
52125;DHT22;38119;52.710;6.398;2022-12-13T05:51:10;-4.10;99.90
52125;DHT22;38119;52.710;6.398;2022-12-13T05:53:40;-4.10;99.90
52125;DHT22;38119;52.710;6.398;2022-12-13T05:56:05;-4.10;99.90
52125;DHT22;38119;52.710;6.398;2022-12-13T06:01:12;-4.10;99.90
52125;DHT22;38119;52.710;6.398;2022-12-13T06:03:38;-4.10;99.90
52125;DHT22;38119;52.710;6.398;2022-12-13T06:06:05;-4.10;99.90
52125;DHT22;38119;52.710;6.398;2022-12-13T06:08:31;-4.10;99.90
52125;DHT22;38119;52.710;6.398;2022-12-13T06:10:58;-4.10;99.90
52125;DHT22;38119;52.710;6.398;2022-12-13T06:13:24;-4.20;99.90
52125;DHT22;38119;52.710;6.398;2022-12-13T06:15:50;-4.10;99.90
52125;DHT22;38119;52.710;6.398;2022-12-13T06:18:16;-4.20;99.90
52125;DHT22;38119;52.710;6.398;2022-12-13T06:20:42;-4.20;99.90
52125;DHT22;38119;52.710;6.398;2022-12-13T06:23:07;-4.20;99.90
52125;DHT22;38119;52.710;6.398;2022-12-13T06:25:40;-4.10;99.90
52125;DHT22;38119;52.710;6.398;2022-12-13T06:28:07;-4.10;99.90
52125;DHT22;38119;52.710;6.398;2022-12-13T06:30:32;-4.10;99.90
52125;DHT22;38119;52.710;6.398;2022-12-13T06:32:58;-4.10;99.90
52125;DHT22;38119;52.710;6.398;2022-12-13T06:35:24;-4.10;99.90
52125;DHT22;38119;52.710;6.398;2022-12-13T06:37:53;-4.10;99.90
52125;DHT22;38119;52.710;6.398;2022-12-13T06:40:18;-4.20;99.90
52125;DHT22;38119;52.710;6.398;2022-12-13T06:42:44;-4.20;99.90
52125;DHT22;38119;52.710;6.398;2022-12-13T06:45:10;-4.20;99.90
52125;DHT22;38119;52.710;6.398;2022-12-13T06:47:36;-4.20;99.90
52125;DHT22;38119;52.710;6.398;2022-12-13T06:50:13;-4.20;99.90
52125;DHT22;38119;52.710;6.398;2022-12-13T06:52:39;-4.20;99.90
52125;DHT22;38119;52.710;6.398;2022-12-13T06:55:05;-4.20;99.90
52125;DHT22;38119;52.710;6.398;2022-12-13T06:57:32;-4.20;99.90
52125;DHT22;38119;52.710;6.398;2022-12-13T06:59:58;-4.20;99.90
52125;DHT22;38119;52.710;6.398;2022-12-13T07:02:24;-5.60;99.90
52125;DHT22;38119;52.710;6.398;2022-12-13T07:04:50;-4.20;99.90
52125;DHT22;38119;52.710;6.398;2022-12-13T07:07:15;-4.20;99.90
52125;DHT22;38119;52.710;6.398;2022-12-13T07:09:41;-4.20;99.90
52125;DHT22;38119;52.710;6.398;2022-12-13T07:12:07;-4.20;99.90
52125;DHT22;38119;52.710;6.398;2022-12-13T07:14:44;-4.20;99.90
52125;DHT22;38119;52.710;6.398;2022-12-13T07:17:09;-4.20;99.90
52125;DHT22;38119;52.710;6.398;2022-12-13T07:19:35;-4.20;99.90
52125;DHT22;38119;52.710;6.398;2022-12-13T07:22:01;-4.20;99.90
52125;DHT22;38119;52.710;6.398;2022-12-13T07:24:26;-4.20;99.90
52125;DHT22;38119;52.710;6.398;2022-12-13T07:26:52;-4.20;99.90
52125;DHT22;38119;52.710;6.398;2022-12-13T07:29:18;-4.20;99.90
52125;DHT22;38119;52.710;6.398;2022-12-13T07:31:43;-4.20;99.90
52125;DHT22;38119;52.710;6.398;2022-12-13T07:34:09;-4.20;99.90
52125;DHT22;38119;52.710;6.398;2022-12-13T07:36:34;-4.20;99.90
52125;DHT22;38119;52.710;6.398;2022-12-13T07:39:11;-4.20;99.90
52125;DHT22;38119;52.710;6.398;2022-12-13T07:41:37;-4.20;99.90
52125;DHT22;38119;52.710;6.398;2022-12-13T07:44:03;-4.20;99.90
52125;DHT22;38119;52.710;6.398;2022-12-13T07:46:29;-4.20;99.90
52125;DHT22;38119;52.710;6.398;2022-12-13T07:48:54;-4.10;99.90
52125;DHT22;38119;52.710;6.398;2022-12-13T07:51:20;-4.10;99.90
52125;DHT22;38119;52.710;6.398;2022-12-13T07:53:46;-4.10;99.90
52125;DHT22;38119;52.710;6.398;2022-12-13T07:56:11;-4.10;99.90
52125;DHT22;38119;52.710;6.398;2022-12-13T07:58:37;-4.10;99.90
52125;DHT22;38119;52.710;6.398;2022-12-13T08:01:05;-4.10;99.90
52125;DHT22;38119;52.710;6.398;2022-12-13T08:03:47;-4.10;99.90
52125;DHT22;38119;52.710;6.398;2022-12-13T08:06:13;-4.10;99.90
52125;DHT22;38119;52.710;6.398;2022-12-13T08:08:39;-4.10;99.90
52125;DHT22;38119;52.710;6.398;2022-12-13T08:11:07;-4.10;99.90
52125;DHT22;38119;52.710;6.398;2022-12-13T08:13:33;-4.10;99.90
52125;DHT22;38119;52.710;6.398;2022-12-13T08:16:00;-4.10;99.90
52125;DHT22;38119;52.710;6.398;2022-12-13T08:18:27;-4.10;99.90
52125;DHT22;38119;52.710;6.398;2022-12-13T08:21:00;-4.10;99.90
52125;DHT22;38119;52.710;6.398;2022-12-13T08:23:26;-4.10;99.90
52125;DHT22;38119;52.710;6.398;2022-12-13T08:25:54;-4.10;99.90
52125;DHT22;38119;52.710;6.398;2022-12-13T08:28:32;-4.10;99.90
52125;DHT22;38119;52.710;6.398;2022-12-13T08:31:09;-4.10;99.90
52125;DHT22;38119;52.710;6.398;2022-12-13T08:33:39;-4.10;99.90
52125;DHT22;38119;52.710;6.398;2022-12-13T08:36:09;-4.10;99.90
52125;DHT22;38119;52.710;6.398;2022-12-13T08:38:35;-4.10;99.90
52125;DHT22;38119;52.710;6.398;2022-12-13T08:41:02;-4.10;99.90
52125;DHT22;38119;52.710;6.398;2022-12-13T08:43:28;-4.10;99.90
52125;DHT22;38119;52.710;6.398;2022-12-13T08:45:54;-4.10;99.90
52125;DHT22;38119;52.710;6.398;2022-12-13T08:48:19;-4.00;99.90
52125;DHT22;38119;52.710;6.398;2022-12-13T08:50:45;-4.00;99.90
52125;DHT22;38119;52.710;6.398;2022-12-13T08:53:22;-4.00;99.90
52125;DHT22;38119;52.710;6.398;2022-12-13T08:55:48;-4.00;99.90
52125;DHT22;38119;52.710;6.398;2022-12-13T08:58:13;-4.00;99.90
52125;DHT22;38119;52.710;6.398;2022-12-13T09:00:39;-4.00;99.90
52125;DHT22;38119;52.710;6.398;2022-12-13T09:03:06;-4.00;99.90
52125;DHT22;38119;52.710;6.398;2022-12-13T09:05:32;-4.00;99.90
52125;DHT22;38119;52.710;6.398;2022-12-13T09:07:58;-3.90;99.90
52125;DHT22;38119;52.710;6.398;2022-12-13T09:10:24;-3.90;99.90
52125;DHT22;38119;52.710;6.398;2022-12-13T09:12:50;-3.90;99.90
52125;DHT22;38119;52.710;6.398;2022-12-13T09:15:16;-3.80;99.90
52125;DHT22;38119;52.710;6.398;2022-12-13T09:17:53;-3.80;99.90
52125;DHT22;38119;52.710;6.398;2022-12-13T09:20:19;-3.70;99.90
52125;DHT22;38119;52.710;6.398;2022-12-13T09:22:45;-3.70;99.90
52125;DHT22;38119;52.710;6.398;2022-12-13T09:25:11;-3.60;99.90
52125;DHT22;38119;52.710;6.398;2022-12-13T09:27:37;-3.60;99.90
52125;DHT22;38119;52.710;6.398;2022-12-13T09:30:03;-3.60;99.90
52125;DHT22;38119;52.710;6.398;2022-12-13T09:32:30;-3.50;99.90
52125;DHT22;38119;52.710;6.398;2022-12-13T09:34:56;-3.50;99.90
52125;DHT22;38119;52.710;6.398;2022-12-13T09:37:22;-3.40;99.90
52125;DHT22;38119;52.710;6.398;2022-12-13T09:39:48;-3.40;99.90
52125;DHT22;38119;52.710;6.398;2022-12-13T09:42:27;-3.30;99.90
52125;DHT22;38119;52.710;6.398;2022-12-13T09:44:59;-3.30;99.90
52125;DHT22;38119;52.710;6.398;2022-12-13T09:47:35;-3.30;99.90
52125;DHT22;38119;52.710;6.398;2022-12-13T09:50:08;-3.20;99.90
52125;DHT22;38119;52.710;6.398;2022-12-13T09:52:38;-3.20;99.90
52125;DHT22;38119;52.710;6.398;2022-12-13T09:55:25;-3.20;99.90
52125;DHT22;38119;52.710;6.398;2022-12-13T09:57:54;-3.10;99.90
52125;DHT22;38119;52.710;6.398;2022-12-13T10:00:24;-3.10;99.90
52125;DHT22;38119;52.710;6.398;2022-12-13T10:02:55;-3.00;99.90
52125;DHT22;38119;52.710;6.398;2022-12-13T10:05:37;-3.00;99.90
52125;DHT22;38119;52.710;6.398;2022-12-13T10:08:20;-2.90;99.90
52125;DHT22;38119;52.710;6.398;2022-12-13T10:10:49;-2.90;99.90
52125;DHT22;38119;52.710;6.398;2022-12-13T10:16:14;-2.80;99.90
52125;DHT22;38119;52.710;6.398;2022-12-13T10:18:42;-2.80;99.90
52125;DHT22;38119;52.710;6.398;2022-12-13T10:21:36;-2.90;99.90
52125;DHT22;38119;52.710;6.398;2022-12-13T10:24:23;-2.70;99.90
52125;DHT22;38119;52.710;6.398;2022-12-13T10:27:12;-2.70;99.90
52125;DHT22;38119;52.710;6.398;2022-12-13T10:30:03;-2.60;99.90
52125;DHT22;38119;52.710;6.398;2022-12-13T10:33:01;-2.60;99.90
52125;DHT22;38119;52.710;6.398;2022-12-13T10:35:38;-2.60;99.90
52125;DHT22;38119;52.710;6.398;2022-12-13T10:40:35;-2.50;99.90
52125;DHT22;38119;52.710;6.398;2022-12-13T10:45:35;-2.30;99.90
52125;DHT22;38119;52.710;6.398;2022-12-13T10:48:02;-2.30;99.90
52125;DHT22;38119;52.710;6.398;2022-12-13T10:50:29;-2.30;99.90
52125;DHT22;38119;52.710;6.398;2022-12-13T10:53:16;-2.20;99.90
52125;DHT22;38119;52.710;6.398;2022-12-13T10:55:44;-2.20;99.90
52125;DHT22;38119;52.710;6.398;2022-12-13T10:58:17;-2.20;99.90
52125;DHT22;38119;52.710;6.398;2022-12-13T11:00:45;-2.10;99.90
52125;DHT22;38119;52.710;6.398;2022-12-13T11:03:32;-2.00;99.90
52125;DHT22;38119;52.710;6.398;2022-12-13T11:08:27;-1.90;99.90
52125;DHT22;38119;52.710;6.398;2022-12-13T11:10:58;-1.90;99.90
52125;DHT22;38119;52.710;6.398;2022-12-13T11:13:50;-1.80;99.90
52125;DHT22;38119;52.710;6.398;2022-12-13T11:16:34;-1.80;99.90
52125;DHT22;38119;52.710;6.398;2022-12-13T11:19:17;-1.70;99.90
52125;DHT22;38119;52.710;6.398;2022-12-13T11:21:47;-1.70;99.90
52125;DHT22;38119;52.710;6.398;2022-12-13T11:24:23;-1.60;99.90
52125;DHT22;38119;52.710;6.398;2022-12-13T11:40:59;-1.50;99.90
52125;DHT22;38119;52.710;6.398;2022-12-13T11:43:48;-1.40;99.90
52125;DHT22;38119;52.710;6.398;2022-12-13T11:46:36;-1.30;99.90
52125;DHT22;38119;52.710;6.398;2022-12-13T11:49:13;-1.30;99.90
52125;DHT22;38119;52.710;6.398;2022-12-13T11:52:48;-1.20;99.90
52125;DHT22;38119;52.710;6.398;2022-12-13T12:03:15;-0.50;99.90
52125;DHT22;38119;52.710;6.398;2022-12-13T12:05:59;-0.30;99.90
52125;DHT22;38119;52.710;6.398;2022-12-13T12:08:52;-0.10;99.90
52125;DHT22;38119;52.710;6.398;2022-12-13T12:14:23;0.30;99.90
52125;DHT22;38119;52.710;6.398;2022-12-13T12:16:54;0.40;99.90
52125;DHT22;38119;52.710;6.398;2022-12-13T12:19:22;0.50;99.90
52125;DHT22;38119;52.710;6.398;2022-12-13T12:27:36;1.20;99.90
52125;DHT22;38119;52.710;6.398;2022-12-13T12:30:15;1.40;99.90
52125;DHT22;38119;52.710;6.398;2022-12-13T12:38:38;1.90;99.90
52125;DHT22;38119;52.710;6.398;2022-12-13T12:44:03;2.10;99.90
52125;DHT22;38119;52.710;6.398;2022-12-13T13:03:27;2.80;99.90
52125;DHT22;38119;52.710;6.398;2022-12-13T13:06:11;2.90;99.90
52125;DHT22;38119;52.710;6.398;2022-12-13T13:08:46;2.80;99.90
52125;DHT22;38119;52.710;6.398;2022-12-13T13:11:14;2.40;99.90
52125;DHT22;38119;52.710;6.398;2022-12-13T13:13:59;2.40;99.90
52125;DHT22;38119;52.710;6.398;2022-12-13T13:16:35;2.40;99.90
52125;DHT22;38119;52.710;6.398;2022-12-13T13:19:04;2.50;99.90
52125;DHT22;38119;52.710;6.398;2022-12-13T13:21:55;2.40;99.90
52125;DHT22;38119;52.710;6.398;2022-12-13T13:28:20;2.40;99.90
52125;DHT22;38119;52.710;6.398;2022-12-13T13:31:06;2.00;99.90
52125;DHT22;38119;52.710;6.398;2022-12-13T13:33:46;1.60;99.90
52125;DHT22;38119;52.710;6.398;2022-12-13T13:39:36;1.20;99.90
52125;DHT22;38119;52.710;6.398;2022-12-13T13:42:23;1.20;99.90
52125;DHT22;38119;52.710;6.398;2022-12-13T13:47:27;1.10;99.90
52125;DHT22;38119;52.710;6.398;2022-12-13T14:01:41;1.00;99.90
52125;DHT22;38119;52.710;6.398;2022-12-13T14:10:18;0.30;99.90
52125;DHT22;38119;52.710;6.398;2022-12-13T14:19:31;-0.10;99.90
52125;DHT22;38119;52.710;6.398;2022-12-13T14:27:45;-0.30;99.90
52125;DHT22;38119;52.710;6.398;2022-12-13T14:30:17;-0.40;99.90
52125;DHT22;38119;52.710;6.398;2022-12-13T14:32:45;-0.40;99.90
52125;DHT22;38119;52.710;6.398;2022-12-13T14:40:35;-0.60;99.90
52125;DHT22;38119;52.710;6.398;2022-12-13T14:43:02;-0.60;99.90
52125;DHT22;38119;52.710;6.398;2022-12-13T14:45:31;-0.70;99.90
52125;DHT22;38119;52.710;6.398;2022-12-13T14:48:00;-0.80;99.90
52125;DHT22;38119;52.710;6.398;2022-12-13T14:50:31;-0.80;99.90
52125;DHT22;38119;52.710;6.398;2022-12-13T14:52:57;-0.80;99.90
52125;DHT22;38119;52.710;6.398;2022-12-13T14:55:35;-0.90;99.90
52125;DHT22;38119;52.710;6.398;2022-12-13T14:58:03;-0.90;99.90
52125;DHT22;38119;52.710;6.398;2022-12-13T15:00:43;-0.90;99.90
52125;DHT22;38119;52.710;6.398;2022-12-13T15:03:23;-1.00;99.90
52125;DHT22;38119;52.710;6.398;2022-12-13T15:05:55;-1.10;99.90
52125;DHT22;38119;52.710;6.398;2022-12-13T15:08:21;-1.10;99.90
52125;DHT22;38119;52.710;6.398;2022-12-13T15:10:49;-1.10;99.90
52125;DHT22;38119;52.710;6.398;2022-12-13T15:13:24;-1.20;99.90
52125;DHT22;38119;52.710;6.398;2022-12-13T15:15:58;-1.20;99.90
52125;DHT22;38119;52.710;6.398;2022-12-13T15:18:26;-1.30;99.90
52125;DHT22;38119;52.710;6.398;2022-12-13T15:20:54;-1.30;99.90
52125;DHT22;38119;52.710;6.398;2022-12-13T15:25:49;-1.40;99.90
52125;DHT22;38119;52.710;6.398;2022-12-13T15:28:16;-1.50;99.90
52125;DHT22;38119;52.710;6.398;2022-12-13T15:30:42;-1.50;99.90
52125;DHT22;38119;52.710;6.398;2022-12-13T15:33:22;-1.60;99.90
52125;DHT22;38119;52.710;6.398;2022-12-13T15:35:59;-1.60;99.90
52125;DHT22;38119;52.710;6.398;2022-12-13T15:38:26;-1.60;99.90
52125;DHT22;38119;52.710;6.398;2022-12-13T15:40:52;-1.60;99.90
52125;DHT22;38119;52.710;6.398;2022-12-13T15:43:24;-1.60;99.90
52125;DHT22;38119;52.710;6.398;2022-12-13T15:45:53;-1.70;99.90
52125;DHT22;38119;52.710;6.398;2022-12-13T15:48:29;-1.70;99.90
52125;DHT22;38119;52.710;6.398;2022-12-13T15:51:17;-1.70;99.90
52125;DHT22;38119;52.710;6.398;2022-12-13T15:54:23;-1.80;99.90
52125;DHT22;38119;52.710;6.398;2022-12-13T15:56:59;-1.80;99.90
52125;DHT22;38119;52.710;6.398;2022-12-13T15:59:28;-1.80;99.90
52125;DHT22;38119;52.710;6.398;2022-12-13T16:01:55;-1.90;99.90
52125;DHT22;38119;52.710;6.398;2022-12-13T16:04:22;-1.90;99.90
52125;DHT22;38119;52.710;6.398;2022-12-13T16:06:50;-1.90;99.90
52125;DHT22;38119;52.710;6.398;2022-12-13T16:09:18;-1.90;99.90
52125;DHT22;38119;52.710;6.398;2022-12-13T16:11:50;-1.90;99.90
52125;DHT22;38119;52.710;6.398;2022-12-13T16:14:36;-1.90;99.90
52125;DHT22;38119;52.710;6.398;2022-12-13T16:17:20;-1.90;99.90
52125;DHT22;38119;52.710;6.398;2022-12-13T16:19:47;-2.00;99.90
52125;DHT22;38119;52.710;6.398;2022-12-13T16:22:12;-2.00;99.90
52125;DHT22;38119;52.710;6.398;2022-12-13T16:24:38;-2.00;99.90
52125;DHT22;38119;52.710;6.398;2022-12-13T16:27:04;-2.00;99.90
52125;DHT22;38119;52.710;6.398;2022-12-13T16:29:29;-2.00;99.90
52125;DHT22;38119;52.710;6.398;2022-12-13T16:31:55;-2.00;99.90
52125;DHT22;38119;52.710;6.398;2022-12-13T16:34:24;-2.10;99.90
52125;DHT22;38119;52.710;6.398;2022-12-13T16:36:49;-2.10;99.90
52125;DHT22;38119;52.710;6.398;2022-12-13T16:39:15;-2.10;99.90
52125;DHT22;38119;52.710;6.398;2022-12-13T16:41:45;-2.20;99.90
52125;DHT22;38119;52.710;6.398;2022-12-13T16:44:22;-2.20;99.90
52125;DHT22;38119;52.710;6.398;2022-12-13T16:46:50;-2.20;99.90
52125;DHT22;38119;52.710;6.398;2022-12-13T16:49:24;-2.20;99.90
52125;DHT22;38119;52.710;6.398;2022-12-13T16:51:54;-2.20;99.90
52125;DHT22;38119;52.710;6.398;2022-12-13T16:54:21;-2.20;99.90
52125;DHT22;38119;52.710;6.398;2022-12-13T16:56:47;-2.10;99.90
52125;DHT22;38119;52.710;6.398;2022-12-13T16:59:18;-2.20;99.90
52125;DHT22;38119;52.710;6.398;2022-12-13T17:01:45;-2.10;99.90
52125;DHT22;38119;52.710;6.398;2022-12-13T17:04:12;-2.20;99.90
52125;DHT22;38119;52.710;6.398;2022-12-13T17:06:39;-2.20;99.90
52125;DHT22;38119;52.710;6.398;2022-12-13T17:09:05;-2.20;99.90
52125;DHT22;38119;52.710;6.398;2022-12-13T17:11:32;-2.20;99.90
52125;DHT22;38119;52.710;6.398;2022-12-13T17:13:58;-2.20;99.90
52125;DHT22;38119;52.710;6.398;2022-12-13T17:16:24;-2.20;99.90
52125;DHT22;38119;52.710;6.398;2022-12-13T17:18:50;-2.20;99.90
52125;DHT22;38119;52.710;6.398;2022-12-13T17:21:16;-2.20;99.90
52125;DHT22;38119;52.710;6.398;2022-12-13T17:23:42;-2.20;99.90
52125;DHT22;38119;52.710;6.398;2022-12-13T17:26:09;-2.20;99.90
52125;DHT22;38119;52.710;6.398;2022-12-13T17:28:35;-2.20;99.90
52125;DHT22;38119;52.710;6.398;2022-12-13T17:31:11;-2.20;99.90
52125;DHT22;38119;52.710;6.398;2022-12-13T17:33:38;-2.20;99.90
52125;DHT22;38119;52.710;6.398;2022-12-13T17:36:05;-2.20;99.90
52125;DHT22;38119;52.710;6.398;2022-12-13T17:38:31;-2.20;99.90
52125;DHT22;38119;52.710;6.398;2022-12-13T17:40:57;-2.20;99.90
52125;DHT22;38119;52.710;6.398;2022-12-13T17:43:23;-2.20;99.90
52125;DHT22;38119;52.710;6.398;2022-12-13T17:46:06;-2.20;99.90
52125;DHT22;38119;52.710;6.398;2022-12-13T17:48:33;-2.20;99.90
52125;DHT22;38119;52.710;6.398;2022-12-13T17:50:59;-2.20;99.90
52125;DHT22;38119;52.710;6.398;2022-12-13T17:53:24;-2.20;99.90
52125;DHT22;38119;52.710;6.398;2022-12-13T17:56:02;-2.20;99.90
52125;DHT22;38119;52.710;6.398;2022-12-13T17:58:29;-2.20;99.90
52125;DHT22;38119;52.710;6.398;2022-12-13T18:00:57;-2.20;99.90
52125;DHT22;38119;52.710;6.398;2022-12-13T18:03:23;-2.20;99.90
52125;DHT22;38119;52.710;6.398;2022-12-13T18:05:58;-2.20;99.90
52125;DHT22;38119;52.710;6.398;2022-12-13T18:08:25;-2.20;99.90
52125;DHT22;38119;52.710;6.398;2022-12-13T18:10:52;-2.20;99.90
52125;DHT22;38119;52.710;6.398;2022-12-13T18:13:18;-2.20;99.90
52125;DHT22;38119;52.710;6.398;2022-12-13T18:15:44;-2.20;99.90
52125;DHT22;38119;52.710;6.398;2022-12-13T18:18:10;-2.20;99.90
52125;DHT22;38119;52.710;6.398;2022-12-13T18:20:35;-2.30;99.90
52125;DHT22;38119;52.710;6.398;2022-12-13T18:23:01;-2.30;99.90
52125;DHT22;38119;52.710;6.398;2022-12-13T18:25:28;-2.20;99.90
52125;DHT22;38119;52.710;6.398;2022-12-13T18:27:54;-2.30;99.90
52125;DHT22;38119;52.710;6.398;2022-12-13T18:30:20;-2.20;99.90
52125;DHT22;38119;52.710;6.398;2022-12-13T18:32:46;-2.20;99.90
52125;DHT22;38119;52.710;6.398;2022-12-13T18:35:12;-2.20;99.90
52125;DHT22;38119;52.710;6.398;2022-12-13T18:37:37;-2.20;99.90
52125;DHT22;38119;52.710;6.398;2022-12-13T18:40:03;-2.20;99.90